sensor_id;sensor_type;location;lat;lon;timestamp;P1;durP1;ratioP1;P2;durP2;ratioP2
13090;SDS011;6611;52.604;13.438;2023-03-03T00:04:30;13.37;;;5.97;;
13090;SDS011;6611;52.604;13.438;2023-03-03T00:09:31;12.40;;;6.23;;
13090;SDS011;6611;52.604;13.438;2023-03-03T00:14:34;14.37;;;6.30;;
13090;SDS011;6611;52.604;13.438;2023-03-03T00:19:36;11.77;;;5.77;;
13090;SDS011;6611;52.604;13.438;2023-03-03T00:24:40;11.67;;;5.77;;
13090;SDS011;6611;52.604;13.438;2023-03-03T00:29:45;13.47;;;6.13;;
13090;SDS011;6611;52.604;13.438;2023-03-03T00:34:50;14.67;;;6.80;;
13090;SDS011;6611;52.604;13.438;2023-03-03T00:39:52;11.67;;;5.43;;
13090;SDS011;6611;52.604;13.438;2023-03-03T00:44:59;11.30;;;6.00;;
13090;SDS011;6611;52.604;13.438;2023-03-03T00:55:33;13.90;;;6.13;;
13090;SDS011;6611;52.604;13.438;2023-03-03T01:00:37;14.83;;;7.10;;
13090;SDS011;6611;52.604;13.438;2023-03-03T01:05:40;10.37;;;5.30;;
13090;SDS011;6611;52.604;13.438;2023-03-03T01:10:42;12.30;;;5.97;;
13090;SDS011;6611;52.604;13.438;2023-03-03T01:15:49;12.30;;;6.63;;
13090;SDS011;6611;52.604;13.438;2023-03-03T01:20:51;12.13;;;5.93;;
13090;SDS011;6611;52.604;13.438;2023-03-03T01:25:52;11.10;;;5.60;;
13090;SDS011;6611;52.604;13.438;2023-03-03T01:31:00;12.70;;;6.87;;
13090;SDS011;6611;52.604;13.438;2023-03-03T01:36:03;12.07;;;6.17;;
13090;SDS011;6611;52.604;13.438;2023-03-03T01:41:05;14.07;;;6.93;;
13090;SDS011;6611;52.604;13.438;2023-03-03T01:46:26;11.30;;;5.50;;
13090;SDS011;6611;52.604;13.438;2023-03-03T01:51:35;14.00;;;6.73;;
13090;SDS011;6611;52.604;13.438;2023-03-03T01:56:40;11.87;;;6.20;;
13090;SDS011;6611;52.604;13.438;2023-03-03T02:01:44;9.53;;;5.23;;
13090;SDS011;6611;52.604;13.438;2023-03-03T02:06:48;11.97;;;5.93;;
13090;SDS011;6611;52.604;13.438;2023-03-03T02:11:54;12.00;;;6.10;;
13090;SDS011;6611;52.604;13.438;2023-03-03T02:17:00;15.23;;;6.50;;
13090;SDS011;6611;52.604;13.438;2023-03-03T02:22:02;12.93;;;6.20;;
13090;SDS011;6611;52.604;13.438;2023-03-03T02:27:05;12.03;;;6.23;;
13090;SDS011;6611;52.604;13.438;2023-03-03T02:32:07;12.27;;;6.57;;
13090;SDS011;6611;52.604;13.438;2023-03-03T02:37:09;13.00;;;6.43;;
13090;SDS011;6611;52.604;13.438;2023-03-03T02:42:13;12.23;;;5.80;;
13090;SDS011;6611;52.604;13.438;2023-03-03T02:47:18;13.60;;;6.03;;
13090;SDS011;6611;52.604;13.438;2023-03-03T02:52:20;9.37;;;5.20;;
13090;SDS011;6611;52.604;13.438;2023-03-03T02:57:24;10.20;;;5.33;;
13090;SDS011;6611;52.604;13.438;2023-03-03T03:02:25;11.47;;;5.50;;
13090;SDS011;6611;52.604;13.438;2023-03-03T03:07:27;10.47;;;5.30;;
13090;SDS011;6611;52.604;13.438;2023-03-03T03:12:30;13.27;;;6.30;;
13090;SDS011;6611;52.604;13.438;2023-03-03T03:17:32;10.23;;;5.33;;
13090;SDS011;6611;52.604;13.438;2023-03-03T03:22:34;11.90;;;6.30;;
13090;SDS011;6611;52.604;13.438;2023-03-03T03:27:37;14.03;;;6.23;;
13090;SDS011;6611;52.604;13.438;2023-03-03T03:32:39;11.17;;;5.60;;
13090;SDS011;6611;52.604;13.438;2023-03-03T03:37:40;10.43;;;5.07;;
13090;SDS011;6611;52.604;13.438;2023-03-03T03:42:43;8.93;;;4.73;;
13090;SDS011;6611;52.604;13.438;2023-03-03T03:47:45;8.03;;;4.70;;
13090;SDS011;6611;52.604;13.438;2023-03-03T03:52:47;8.97;;;4.50;;
13090;SDS011;6611;52.604;13.438;2023-03-03T03:57:51;7.33;;;3.97;;
13090;SDS011;6611;52.604;13.438;2023-03-03T04:02:52;7.53;;;4.10;;
13090;SDS011;6611;52.604;13.438;2023-03-03T04:07:54;9.07;;;4.70;;
13090;SDS011;6611;52.604;13.438;2023-03-03T04:12:57;10.37;;;4.83;;
13090;SDS011;6611;52.604;13.438;2023-03-03T04:17:59;12.67;;;4.97;;
13090;SDS011;6611;52.604;13.438;2023-03-03T04:23:00;8.97;;;3.83;;
13090;SDS011;6611;52.604;13.438;2023-03-03T04:28:03;7.87;;;4.03;;
13090;SDS011;6611;52.604;13.438;2023-03-03T04:33:05;8.40;;;4.47;;
13090;SDS011;6611;52.604;13.438;2023-03-03T04:38:08;6.50;;;4.07;;
13090;SDS011;6611;52.604;13.438;2023-03-03T04:43:11;5.97;;;3.83;;
13090;SDS011;6611;52.604;13.438;2023-03-03T04:48:12;8.53;;;3.93;;
13090;SDS011;6611;52.604;13.438;2023-03-03T04:53:14;7.13;;;4.27;;
13090;SDS011;6611;52.604;13.438;2023-03-03T04:58:17;9.07;;;3.80;;
13090;SDS011;6611;52.604;13.438;2023-03-03T05:03:19;7.00;;;4.00;;
13090;SDS011;6611;52.604;13.438;2023-03-03T05:08:21;8.00;;;3.60;;
13090;SDS011;6611;52.604;13.438;2023-03-03T05:13:24;7.33;;;4.60;;
13090;SDS011;6611;52.604;13.438;2023-03-03T05:18:27;8.20;;;4.47;;
13090;SDS011;6611;52.604;13.438;2023-03-03T05:23:29;7.43;;;4.13;;
13090;SDS011;6611;52.604;13.438;2023-03-03T05:28:32;8.30;;;3.67;;
13090;SDS011;6611;52.604;13.438;2023-03-03T05:33:34;8.60;;;4.33;;
13090;SDS011;6611;52.604;13.438;2023-03-03T05:38:35;7.77;;;4.60;;
13090;SDS011;6611;52.604;13.438;2023-03-03T05:43:39;8.60;;;4.27;;
13090;SDS011;6611;52.604;13.438;2023-03-03T05:48:40;6.23;;;4.23;;
13090;SDS011;6611;52.604;13.438;2023-03-03T05:53:42;7.87;;;4.23;;
13090;SDS011;6611;52.604;13.438;2023-03-03T05:58:45;10.47;;;4.50;;
13090;SDS011;6611;52.604;13.438;2023-03-03T06:03:47;10.47;;;5.03;;
13090;SDS011;6611;52.604;13.438;2023-03-03T06:08:48;7.53;;;4.30;;
13090;SDS011;6611;52.604;13.438;2023-03-03T06:13:52;8.73;;;4.10;;
13090;SDS011;6611;52.604;13.438;2023-03-03T06:18:54;6.17;;;3.30;;
13090;SDS011;6611;52.604;13.438;2023-03-03T06:23:56;9.33;;;4.20;;
13090;SDS011;6611;52.604;13.438;2023-03-03T06:28:59;9.60;;;4.37;;
13090;SDS011;6611;52.604;13.438;2023-03-03T06:34:01;6.07;;;3.73;;
13090;SDS011;6611;52.604;13.438;2023-03-03T06:39:03;7.80;;;4.03;;
13090;SDS011;6611;52.604;13.438;2023-03-03T06:44:08;9.17;;;4.40;;
13090;SDS011;6611;52.604;13.438;2023-03-03T06:49:11;7.27;;;3.43;;
13090;SDS011;6611;52.604;13.438;2023-03-03T06:54:13;6.13;;;3.87;;
13090;SDS011;6611;52.604;13.438;2023-03-03T06:59:18;7.70;;;3.60;;
13090;SDS011;6611;52.604;13.438;2023-03-03T07:04:23;5.93;;;3.33;;
13090;SDS011;6611;52.604;13.438;2023-03-03T07:09:28;7.80;;;4.17;;
13090;SDS011;6611;52.604;13.438;2023-03-03T07:14:31;6.53;;;3.73;;
13090;SDS011;6611;52.604;13.438;2023-03-03T07:19:36;8.20;;;3.67;;
13090;SDS011;6611;52.604;13.438;2023-03-03T07:24:40;9.00;;;4.03;;
13090;SDS011;6611;52.604;13.438;2023-03-03T07:29:46;9.63;;;4.07;;
13090;SDS011;6611;52.604;13.438;2023-03-03T07:34:48;10.30;;;4.73;;
13090;SDS011;6611;52.604;13.438;2023-03-03T07:39:52;10.70;;;4.43;;
13090;SDS011;6611;52.604;13.438;2023-03-03T07:44:56;9.10;;;4.27;;
13090;SDS011;6611;52.604;13.438;2023-03-03T07:49:59;8.93;;;4.13;;
13090;SDS011;6611;52.604;13.438;2023-03-03T08:11:49;6.93;;;3.60;;
13090;SDS011;6611;52.604;13.438;2023-03-03T08:16:54;8.37;;;4.23;;
13090;SDS011;6611;52.604;13.438;2023-03-03T08:22:00;5.97;;;3.70;;
13090;SDS011;6611;52.604;13.438;2023-03-03T08:27:09;8.03;;;3.77;;
13090;SDS011;6611;52.604;13.438;2023-03-03T08:32:11;8.87;;;3.77;;
13090;SDS011;6611;52.604;13.438;2023-03-03T08:37:14;7.93;;;3.33;;
13090;SDS011;6611;52.604;13.438;2023-03-03T08:42:16;6.80;;;3.37;;
13090;SDS011;6611;52.604;13.438;2023-03-03T08:47:18;7.37;;;3.90;;
13090;SDS011;6611;52.604;13.438;2023-03-03T08:52:21;8.43;;;3.47;;
13090;SDS011;6611;52.604;13.438;2023-03-03T08:57:22;9.07;;;4.07;;
13090;SDS011;6611;52.604;13.438;2023-03-03T09:02:24;8.53;;;3.97;;
13090;SDS011;6611;52.604;13.438;2023-03-03T09:07:27;5.57;;;3.20;;
13090;SDS011;6611;52.604;13.438;2023-03-03T09:12:29;6.83;;;2.80;;
13090;SDS011;6611;52.604;13.438;2023-03-03T09:17:34;5.00;;;2.73;;
13090;SDS011;6611;52.604;13.438;2023-03-03T09:22:39;6.90;;;3.43;;
13090;SDS011;6611;52.604;13.438;2023-03-03T09:27:40;6.93;;;3.33;;
13090;SDS011;6611;52.604;13.438;2023-03-03T09:32:42;6.20;;;3.33;;
13090;SDS011;6611;52.604;13.438;2023-03-03T09:37:47;6.50;;;3.67;;
13090;SDS011;6611;52.604;13.438;2023-03-03T09:42:54;6.23;;;2.80;;
13090;SDS011;6611;52.604;13.438;2023-03-03T09:48:09;5.63;;;3.40;;
13090;SDS011;6611;52.604;13.438;2023-03-03T09:53:27;8.03;;;3.80;;
13090;SDS011;6611;52.604;13.438;2023-03-03T09:58:42;5.70;;;3.33;;
13090;SDS011;6611;52.604;13.438;2023-03-03T10:03:59;8.10;;;3.87;;
13090;SDS011;6611;52.604;13.438;2023-03-03T10:09:36;7.33;;;3.57;;
13090;SDS011;6611;52.604;13.438;2023-03-03T10:14:53;6.13;;;3.60;;
13090;SDS011;6611;52.604;13.438;2023-03-03T10:20:25;7.67;;;3.87;;
13090;SDS011;6611;52.604;13.438;2023-03-03T10:25:51;6.67;;;3.97;;
13090;SDS011;6611;52.604;13.438;2023-03-03T10:31:00;7.37;;;3.70;;
13090;SDS011;6611;52.604;13.438;2023-03-03T10:36:19;7.33;;;3.90;;
13090;SDS011;6611;52.604;13.438;2023-03-03T10:41:39;8.30;;;4.27;;
13090;SDS011;6611;52.604;13.438;2023-03-03T10:46:54;8.63;;;4.47;;
13090;SDS011;6611;52.604;13.438;2023-03-03T10:52:17;10.63;;;4.87;;
13090;SDS011;6611;52.604;13.438;2023-03-03T10:57:28;9.13;;;4.67;;
13090;SDS011;6611;52.604;13.438;2023-03-03T11:02:37;8.60;;;4.73;;
13090;SDS011;6611;52.604;13.438;2023-03-03T11:07:45;10.40;;;5.57;;
13090;SDS011;6611;52.604;13.438;2023-03-03T11:12:55;9.73;;;5.17;;
13090;SDS011;6611;52.604;13.438;2023-03-03T11:18:24;9.87;;;5.13;;
13090;SDS011;6611;52.604;13.438;2023-03-03T11:29:06;10.77;;;5.43;;
13090;SDS011;6611;52.604;13.438;2023-03-03T11:34:22;12.23;;;6.03;;
13090;SDS011;6611;52.604;13.438;2023-03-03T11:39:36;10.80;;;4.93;;
13090;SDS011;6611;52.604;13.438;2023-03-03T11:44:40;11.57;;;5.30;;
13090;SDS011;6611;52.604;13.438;2023-03-03T11:49:46;11.77;;;5.37;;
13090;SDS011;6611;52.604;13.438;2023-03-03T11:54:51;11.93;;;6.07;;
13090;SDS011;6611;52.604;13.438;2023-03-03T12:00:03;12.40;;;5.80;;
13090;SDS011;6611;52.604;13.438;2023-03-03T12:05:18;9.77;;;5.33;;
13090;SDS011;6611;52.604;13.438;2023-03-03T12:10:32;12.53;;;6.33;;
13090;SDS011;6611;52.604;13.438;2023-03-03T12:15:40;10.77;;;5.57;;
13090;SDS011;6611;52.604;13.438;2023-03-03T12:20:48;12.00;;;6.07;;
13090;SDS011;6611;52.604;13.438;2023-03-03T12:26:04;13.20;;;6.47;;
13090;SDS011;6611;52.604;13.438;2023-03-03T12:31:17;9.70;;;5.50;;
13090;SDS011;6611;52.604;13.438;2023-03-03T12:36:33;10.37;;;5.97;;
13090;SDS011;6611;52.604;13.438;2023-03-03T12:41:49;9.53;;;5.03;;
13090;SDS011;6611;52.604;13.438;2023-03-03T12:47:00;12.80;;;6.00;;
13090;SDS011;6611;52.604;13.438;2023-03-03T12:52:09;14.80;;;7.07;;
13090;SDS011;6611;52.604;13.438;2023-03-03T12:57:24;14.03;;;6.17;;
13090;SDS011;6611;52.604;13.438;2023-03-03T13:02:40;11.40;;;6.20;;
13090;SDS011;6611;52.604;13.438;2023-03-03T13:07:47;12.90;;;6.60;;
13090;SDS011;6611;52.604;13.438;2023-03-03T13:12:59;12.57;;;6.37;;
13090;SDS011;6611;52.604;13.438;2023-03-03T13:18:14;12.73;;;6.40;;
13090;SDS011;6611;52.604;13.438;2023-03-03T13:23:29;13.13;;;6.63;;
13090;SDS011;6611;52.604;13.438;2023-03-03T13:28:39;10.70;;;5.83;;
13090;SDS011;6611;52.604;13.438;2023-03-03T13:33:50;14.87;;;6.47;;
13090;SDS011;6611;52.604;13.438;2023-03-03T13:38:55;11.70;;;6.13;;
13090;SDS011;6611;52.604;13.438;2023-03-03T13:44:03;11.13;;;6.10;;
13090;SDS011;6611;52.604;13.438;2023-03-03T13:54:49;11.80;;;5.80;;
13090;SDS011;6611;52.604;13.438;2023-03-03T13:59:58;10.57;;;5.90;;
13090;SDS011;6611;52.604;13.438;2023-03-03T14:05:11;11.30;;;6.23;;
13090;SDS011;6611;52.604;13.438;2023-03-03T14:10:18;10.43;;;5.50;;
13090;SDS011;6611;52.604;13.438;2023-03-03T14:15:25;9.27;;;5.27;;
13090;SDS011;6611;52.604;13.438;2023-03-03T14:20:32;10.23;;;6.10;;
13090;SDS011;6611;52.604;13.438;2023-03-03T14:25:51;12.87;;;7.20;;
13090;SDS011;6611;52.604;13.438;2023-03-03T14:30:56;11.57;;;6.53;;
13090;SDS011;6611;52.604;13.438;2023-03-03T14:36:04;12.20;;;5.67;;
13090;SDS011;6611;52.604;13.438;2023-03-03T14:41:12;11.77;;;6.70;;
13090;SDS011;6611;52.604;13.438;2023-03-03T14:46:21;10.77;;;5.50;;
13090;SDS011;6611;52.604;13.438;2023-03-03T14:51:39;11.23;;;5.83;;
13090;SDS011;6611;52.604;13.438;2023-03-03T14:56:54;10.83;;;6.17;;
13090;SDS011;6611;52.604;13.438;2023-03-03T15:02:07;9.87;;;5.80;;
13090;SDS011;6611;52.604;13.438;2023-03-03T15:07:30;13.33;;;6.50;;
13090;SDS011;6611;52.604;13.438;2023-03-03T15:12:35;11.57;;;6.40;;
13090;SDS011;6611;52.604;13.438;2023-03-03T15:17:40;12.10;;;7.17;;
13090;SDS011;6611;52.604;13.438;2023-03-03T15:22:49;12.37;;;6.60;;
13090;SDS011;6611;52.604;13.438;2023-03-03T15:28:05;15.80;;;7.43;;
13090;SDS011;6611;52.604;13.438;2023-03-03T15:33:18;12.13;;;6.87;;
13090;SDS011;6611;52.604;13.438;2023-03-03T15:38:33;12.30;;;7.33;;
13090;SDS011;6611;52.604;13.438;2023-03-03T15:43:44;12.17;;;7.37;;
13090;SDS011;6611;52.604;13.438;2023-03-03T15:48:57;15.47;;;8.87;;
13090;SDS011;6611;52.604;13.438;2023-03-03T15:54:12;14.10;;;7.13;;
13090;SDS011;6611;52.604;13.438;2023-03-03T15:59:43;14.13;;;7.50;;
13090;SDS011;6611;52.604;13.438;2023-03-03T16:04:57;14.70;;;6.97;;
13090;SDS011;6611;52.604;13.438;2023-03-03T16:10:10;16.23;;;7.63;;
13090;SDS011;6611;52.604;13.438;2023-03-03T16:15:25;14.03;;;7.87;;
13090;SDS011;6611;52.604;13.438;2023-03-03T16:20:39;17.60;;;9.77;;
13090;SDS011;6611;52.604;13.438;2023-03-03T16:25:55;13.53;;;8.20;;
13090;SDS011;6611;52.604;13.438;2023-03-03T16:31:02;15.23;;;7.93;;
13090;SDS011;6611;52.604;13.438;2023-03-03T16:36:11;16.13;;;8.07;;
13090;SDS011;6611;52.604;13.438;2023-03-03T16:41:31;14.63;;;7.80;;
13090;SDS011;6611;52.604;13.438;2023-03-03T16:46:44;13.87;;;8.47;;
13090;SDS011;6611;52.604;13.438;2023-03-03T16:51:48;16.07;;;8.30;;
13090;SDS011;6611;52.604;13.438;2023-03-03T16:56:59;17.87;;;9.07;;
13090;SDS011;6611;52.604;13.438;2023-03-03T17:02:12;15.27;;;8.33;;
13090;SDS011;6611;52.604;13.438;2023-03-03T17:07:35;14.60;;;7.63;;
13090;SDS011;6611;52.604;13.438;2023-03-03T17:12:49;12.73;;;7.10;;
13090;SDS011;6611;52.604;13.438;2023-03-03T17:18:10;13.60;;;7.23;;
13090;SDS011;6611;52.604;13.438;2023-03-03T17:23:26;16.63;;;8.60;;
13090;SDS011;6611;52.604;13.438;2023-03-03T17:29:01;16.43;;;8.07;;
13090;SDS011;6611;52.604;13.438;2023-03-03T17:34:18;15.07;;;8.30;;
13090;SDS011;6611;52.604;13.438;2023-03-03T17:39:36;13.23;;;7.57;;
13090;SDS011;6611;52.604;13.438;2023-03-03T17:45:06;13.53;;;8.37;;
13090;SDS011;6611;52.604;13.438;2023-03-03T17:50:11;13.27;;;8.87;;
13090;SDS011;6611;52.604;13.438;2023-03-03T17:55:27;18.73;;;9.30;;
13090;SDS011;6611;52.604;13.438;2023-03-03T18:00:41;20.20;;;9.13;;
13090;SDS011;6611;52.604;13.438;2023-03-03T18:06:04;15.20;;;8.80;;
13090;SDS011;6611;52.604;13.438;2023-03-03T18:11:29;18.00;;;10.77;;
13090;SDS011;6611;52.604;13.438;2023-03-03T18:16:49;18.13;;;10.40;;
13090;SDS011;6611;52.604;13.438;2023-03-03T18:22:05;15.17;;;9.07;;
13090;SDS011;6611;52.604;13.438;2023-03-03T18:27:21;13.27;;;7.67;;
13090;SDS011;6611;52.604;13.438;2023-03-03T18:32:40;13.23;;;8.67;;
13090;SDS011;6611;52.604;13.438;2023-03-03T18:37:43;15.30;;;8.47;;
13090;SDS011;6611;52.604;13.438;2023-03-03T18:42:45;14.53;;;8.17;;
13090;SDS011;6611;52.604;13.438;2023-03-03T18:48:08;14.33;;;8.60;;
13090;SDS011;6611;52.604;13.438;2023-03-03T18:53:12;12.37;;;7.37;;
13090;SDS011;6611;52.604;13.438;2023-03-03T19:09:03;17.43;;;8.07;;
13090;SDS011;6611;52.604;13.438;2023-03-03T19:19:33;15.50;;;9.47;;
13090;SDS011;6611;52.604;13.438;2023-03-03T19:25:11;15.87;;;8.10;;
13090;SDS011;6611;52.604;13.438;2023-03-03T19:30:18;18.00;;;8.57;;
13090;SDS011;6611;52.604;13.438;2023-03-03T19:35:32;15.37;;;9.20;;
13090;SDS011;6611;52.604;13.438;2023-03-03T19:40:42;17.97;;;9.30;;
13090;SDS011;6611;52.604;13.438;2023-03-03T19:45:56;17.23;;;8.40;;
13090;SDS011;6611;52.604;13.438;2023-03-03T19:51:13;13.13;;;8.20;;
13090;SDS011;6611;52.604;13.438;2023-03-03T19:56:24;14.23;;;7.60;;
13090;SDS011;6611;52.604;13.438;2023-03-03T20:01:41;17.60;;;8.57;;
13090;SDS011;6611;52.604;13.438;2023-03-03T20:06:52;15.60;;;8.10;;
13090;SDS011;6611;52.604;13.438;2023-03-03T20:17:40;15.30;;;8.00;;
13090;SDS011;6611;52.604;13.438;2023-03-03T20:22:52;12.93;;;7.47;;
13090;SDS011;6611;52.604;13.438;2023-03-03T20:28:02;12.53;;;7.10;;
13090;SDS011;6611;52.604;13.438;2023-03-03T20:33:13;11.00;;;6.60;;
13090;SDS011;6611;52.604;13.438;2023-03-03T20:38:26;10.57;;;5.80;;
13090;SDS011;6611;52.604;13.438;2023-03-03T20:43:39;8.57;;;4.60;;
13090;SDS011;6611;52.604;13.438;2023-03-03T20:48:57;8.13;;;4.53;;
13090;SDS011;6611;52.604;13.438;2023-03-03T20:54:13;7.67;;;4.43;;
13090;SDS011;6611;52.604;13.438;2023-03-03T20:59:26;7.83;;;3.97;;
13090;SDS011;6611;52.604;13.438;2023-03-03T21:04:33;6.50;;;4.00;;
13090;SDS011;6611;52.604;13.438;2023-03-03T21:09:36;9.07;;;4.57;;
13090;SDS011;6611;52.604;13.438;2023-03-03T21:14:39;6.20;;;3.87;;
13090;SDS011;6611;52.604;13.438;2023-03-03T21:19:40;8.00;;;4.83;;
13090;SDS011;6611;52.604;13.438;2023-03-03T21:24:48;6.23;;;4.07;;
13090;SDS011;6611;52.604;13.438;2023-03-03T21:30:06;8.10;;;5.10;;
13090;SDS011;6611;52.604;13.438;2023-03-03T21:35:10;9.20;;;4.93;;
13090;SDS011;6611;52.604;13.438;2023-03-03T21:40:15;9.67;;;4.53;;
13090;SDS011;6611;52.604;13.438;2023-03-03T21:45:22;8.27;;;5.00;;
13090;SDS011;6611;52.604;13.438;2023-03-03T21:50:24;11.50;;;5.87;;
13090;SDS011;6611;52.604;13.438;2023-03-03T21:55:31;10.20;;;5.83;;
13090;SDS011;6611;52.604;13.438;2023-03-03T22:00:33;9.97;;;5.00;;
13090;SDS011;6611;52.604;13.438;2023-03-03T22:05:34;10.03;;;5.70;;
13090;SDS011;6611;52.604;13.438;2023-03-03T22:10:38;11.03;;;5.63;;
13090;SDS011;6611;52.604;13.438;2023-03-03T22:15:39;9.33;;;5.60;;
13090;SDS011;6611;52.604;13.438;2023-03-03T22:20:41;10.37;;;5.23;;
13090;SDS011;6611;52.604;13.438;2023-03-03T22:25:44;10.93;;;5.70;;
13090;SDS011;6611;52.604;13.438;2023-03-03T22:30:47;9.90;;;5.43;;
13090;SDS011;6611;52.604;13.438;2023-03-03T22:35:48;7.97;;;5.10;;
13090;SDS011;6611;52.604;13.438;2023-03-03T22:40:51;11.57;;;5.40;;
13090;SDS011;6611;52.604;13.438;2023-03-03T22:45:54;8.93;;;5.40;;
13090;SDS011;6611;52.604;13.438;2023-03-03T22:50:56;8.60;;;5.47;;
13090;SDS011;6611;52.604;13.438;2023-03-03T22:56:00;8.53;;;5.50;;
13090;SDS011;6611;52.604;13.438;2023-03-03T23:01:02;9.60;;;5.33;;
13090;SDS011;6611;52.604;13.438;2023-03-03T23:06:06;9.87;;;5.63;;
13090;SDS011;6611;52.604;13.438;2023-03-03T23:11:10;14.13;;;6.00;;
13090;SDS011;6611;52.604;13.438;2023-03-03T23:16:11;10.10;;;5.80;;
13090;SDS011;6611;52.604;13.438;2023-03-03T23:21:13;11.13;;;5.83;;
13090;SDS011;6611;52.604;13.438;2023-03-03T23:26:16;10.40;;;6.03;;
13090;SDS011;6611;52.604;13.438;2023-03-03T23:31:18;11.43;;;5.87;;
13090;SDS011;6611;52.604;13.438;2023-03-03T23:36:19;13.07;;;7.27;;
13090;SDS011;6611;52.604;13.438;2023-03-03T23:41:22;15.07;;;7.40;;
13090;SDS011;6611;52.604;13.438;2023-03-03T23:46:24;17.23;;;8.73;;
13090;SDS011;6611;52.604;13.438;2023-03-03T23:51:26;18.07;;;8.87;;
13090;SDS011;6611;52.604;13.438;2023-03-03T23:56:29;16.80;;;9.40;;
